Time;durP1;ratioP1;P1;durP2;ratioP2;P2;SDS_P1;SDS_P2;PMS_P1;PMS_P2;Temp;Humidity;BMP_temperature;BMP_pressure;BME280_temperature;BME280_humidity;BME280_pressure;Samples;Min_cycle;Max_cycle;Signal;HPM_P1;HPM_P2
2023/05/28 00:00:07;;;;;;;9.57;4.35;;;;;;;;;;4959735;28;20049;-85
2023/05/28 00:02:33;;;;;;;9.18;4.43;;;;;;;;;;4972171;28;20070;-86
2023/05/28 00:05:00;;;;;;;12.27;4.22;;;;;;;;;;4959642;28;20055;-86
2023/05/28 00:07:28;;;;;;;10.20;4.43;;;;;;;;;;4959653;28;20030;-85
2023/05/28 00:10:12;;;;;;;12.63;4.28;;;;;;;;;;4959416;28;20031;-86
2023/05/28 00:12:38;;;;;;;10.63;4.55;;;;;;;;;;4958401;29;20035;-85
2023/05/28 00:15:05;;;;;;;12.98;4.50;;;;;;;;;;4976395;28;20034;-85
2023/05/28 00:17:36;;;;;;;13.05;4.35;;;;;;;;;;4959471;28;20031;-86
2023/05/28 00:20:04;;;;;;;12.50;4.30;;;;;;;;;;4958515;28;20036;-86
2023/05/28 00:22:30;;;;;;;9.32;3.83;;;;;;;;;;4959417;28;20023;-86
2023/05/28 00:24:56;;;;;;;12.85;4.50;;;;;;;;;;4976358;28;20031;-85
2023/05/28 00:27:22;;;;;;;8.82;4.53;;;;;;;;;;4971164;28;20329;-85
2023/05/28 00:29:48;;;;;;;12.23;4.65;;;;;;;;;;4958168;28;20039;-85
2023/05/28 00:32:14;;;;;;;10.52;4.82;;;;;;;;;;4959086;29;20052;-86
2023/05/28 00:34:40;;;;;;;13.27;5.18;;;;;;;;;;4959390;29;20031;-86
2023/05/28 00:37:06;;;;;;;10.85;4.78;;;;;;;;;;4958961;29;20405;-85
2023/05/28 00:39:32;;;;;;;10.30;4.30;;;;;;;;;;4958816;28;20074;-85
2023/05/28 00:45:02;;;;;;;11.32;4.35;;;;;;;;;;4971948;28;20471;-86
2023/05/28 00:47:28;;;;;;;10.20;4.10;;;;;;;;;;4973613;28;20031;-86
2023/05/28 00:49:55;;;;;;;15.40;4.50;;;;;;;;;;4962688;29;20436;-84
2023/05/28 00:52:21;;;;;;;9.80;4.50;;;;;;;;;;4962913;28;20167;-85
2023/05/28 00:54:49;;;;;;;9.77;3.80;;;;;;;;;;4962834;29;20027;-84
2023/05/28 00:57:15;;;;;;;9.68;3.95;;;;;;;;;;4970970;28;20043;-85
2023/05/28 00:59:42;;;;;;;9.18;3.97;;;;;;;;;;4966559;28;20027;-85
2023/05/28 01:02:09;;;;;;;10.70;4.00;;;;;;;;;;4992506;28;20034;-84
2023/05/28 01:04:35;;;;;;;12.93;4.90;;;;;;;;;;5001426;28;20042;-85
2023/05/28 01:07:01;;;;;;;11.45;4.05;;;;;;;;;;5000202;28;20075;-85
2023/05/28 01:09:28;;;;;;;9.70;4.60;;;;;;;;;;5000165;28;20324;-85
2023/05/28 01:11:54;;;;;;;11.27;4.32;;;;;;;;;;5001157;28;20030;-85
2023/05/28 01:14:21;;;;;;;12.90;4.63;;;;;;;;;;5001248;28;20026;-85
2023/05/28 01:16:48;;;;;;;9.52;4.85;;;;;;;;;;5001340;28;20336;-84
2023/05/28 01:19:16;;;;;;;14.20;4.28;;;;;;;;;;5001274;28;20062;-83
2023/05/28 01:21:44;;;;;;;9.45;4.68;;;;;;;;;;5001410;28;20026;-86
2023/05/28 01:24:13;;;;;;;9.43;4.28;;;;;;;;;;5000923;28;20467;-86
2023/05/28 01:26:40;;;;;;;12.13;4.45;;;;;;;;;;5000893;28;20105;-86
2023/05/28 01:29:16;;;;;;;10.45;4.10;;;;;;;;;;4992728;28;20427;-86
2023/05/28 01:31:42;;;;;;;13.10;4.60;;;;;;;;;;4980471;28;20042;-86
2023/05/28 01:34:10;;;;;;;10.48;4.25;;;;;;;;;;4981278;28;20467;-86
2023/05/28 01:36:37;;;;;;;11.43;3.78;;;;;;;;;;4980843;28;20019;-85
2023/05/28 01:39:04;;;;;;;11.25;4.10;;;;;;;;;;4961805;28;20023;-85
2023/05/28 01:44:34;;;;;;;13.82;4.43;;;;;;;;;;4975666;28;20084;-86
2023/05/28 01:47:00;;;;;;;10.32;4.35;;;;;;;;;;4977563;28;20053;-86
2023/05/28 01:49:26;;;;;;;14.15;4.80;;;;;;;;;;4970657;28;20362;-85
2023/05/28 01:51:52;;;;;;;10.13;4.30;;;;;;;;;;4961698;29;20020;-85
2023/05/28 01:54:20;;;;;;;11.60;4.40;;;;;;;;;;4976033;28;20022;-85
2023/05/28 01:59:50;;;;;;;7.45;4.07;;;;;;;;;;4980936;28;20026;-85
2023/05/28 02:02:16;;;;;;;13.45;4.80;;;;;;;;;;4970010;28;20054;-86
2023/05/28 02:04:42;;;;;;;13.15;4.57;;;;;;;;;;4980991;28;20038;-85
2023/05/28 02:07:08;;;;;;;10.18;4.43;;;;;;;;;;4980632;28;20127;-85
2023/05/28 02:09:34;;;;;;;12.88;4.00;;;;;;;;;;4980302;28;20038;-86
2023/05/28 02:12:02;;;;;;;12.32;4.05;;;;;;;;;;4971487;28;20027;-87
2023/05/28 02:14:29;;;;;;;12.73;4.20;;;;;;;;;;4964428;28;20034;-88
2023/05/28 02:16:55;;;;;;;9.88;4.00;;;;;;;;;;4979242;28;20122;-88
2023/05/28 02:19:24;;;;;;;11.85;4.38;;;;;;;;;;4973598;28;20035;-88
2023/05/28 02:21:50;;;;;;;8.75;4.38;;;;;;;;;;4961429;28;20031;-88
2023/05/28 02:24:16;;;;;;;13.32;4.35;;;;;;;;;;4977171;28;20027;-88
2023/05/28 02:26:42;;;;;;;11.75;4.28;;;;;;;;;;4990973;28;20023;-88
2023/05/28 02:29:08;;;;;;;8.52;3.92;;;;;;;;;;4965225;28;20019;-88
2023/05/28 02:31:34;;;;;;;11.85;4.15;;;;;;;;;;4962549;28;20078;-88
2023/05/28 02:34:00;;;;;;;9.60;4.43;;;;;;;;;;4973022;28;20114;-87
2023/05/28 02:36:27;;;;;;;10.48;4.32;;;;;;;;;;4962143;28;20030;-87
2023/05/28 02:38:53;;;;;;;13.48;5.40;;;;;;;;;;4979602;28;20019;-88
2023/05/28 02:44:38;;;;;;;11.73;4.53;;;;;;;;;;4979135;28;20038;-88
2023/05/28 02:47:04;;;;;;;9.63;4.30;;;;;;;;;;4974282;28;20070;-87
2023/05/28 02:49:30;;;;;;;12.35;4.18;;;;;;;;;;4960635;29;20155;-87
2023/05/28 02:51:56;;;;;;;11.88;4.25;;;;;;;;;;4972486;28;20130;-87
2023/05/28 02:54:22;;;;;;;11.23;4.93;;;;;;;;;;4978360;28;20053;-87
2023/05/28 02:59:52;;;;;;;13.27;4.72;;;;;;;;;;4960886;28;20037;-87
2023/05/28 03:02:19;;;;;;;14.02;4.72;;;;;;;;;;4961956;28;20046;-87
2023/05/28 03:04:45;;;;;;;10.93;4.80;;;;;;;;;;4979661;28;20054;-87
2023/05/28 03:07:11;;;;;;;11.30;4.10;;;;;;;;;;4979716;28;20038;-87
2023/05/28 03:09:37;;;;;;;11.35;4.70;;;;;;;;;;4977913;28;20023;-86
2023/05/28 03:12:04;;;;;;;10.75;4.38;;;;;;;;;;4982345;28;20031;-86
2023/05/28 03:14:30;;;;;;;10.77;3.80;;;;;;;;;;4999287;28;20022;-87
2023/05/28 03:16:56;;;;;;;11.80;5.00;;;;;;;;;;4984389;28;20432;-87
2023/05/28 03:19:22;;;;;;;16.35;5.15;;;;;;;;;;4979398;28;20037;-86
2023/05/28 03:21:48;;;;;;;10.70;4.53;;;;;;;;;;4979658;28;20153;-86
2023/05/28 03:24:14;;;;;;;11.38;5.40;;;;;;;;;;4978503;28;20034;-86
2023/05/28 03:26:40;;;;;;;15.07;5.05;;;;;;;;;;4979613;28;20106;-87
2023/05/28 03:29:06;;;;;;;14.07;4.63;;;;;;;;;;4979489;28;20037;-87
2023/05/28 03:31:42;;;;;;;14.00;5.00;;;;;;;;;;4975161;28;20038;-86
2023/05/28 03:34:08;;;;;;;12.82;4.70;;;;;;;;;;4958854;28;20027;-86
2023/05/28 03:36:34;;;;;;;15.63;5.18;;;;;;;;;;4960024;29;20082;-86
2023/05/28 03:39:00;;;;;;;11.38;4.63;;;;;;;;;;4967434;28;20328;-86
2023/05/28 03:41:27;;;;;;;11.73;4.78;;;;;;;;;;4978886;28;20026;-87
2023/05/28 03:43:53;;;;;;;11.85;4.80;;;;;;;;;;4973555;28;20414;-87
2023/05/28 03:46:19;;;;;;;11.90;4.72;;;;;;;;;;4959508;29;20418;-87
2023/05/28 03:48:45;;;;;;;9.68;4.68;;;;;;;;;;4958783;28;20027;-86
2023/05/28 03:51:11;;;;;;;12.73;4.80;;;;;;;;;;4959731;29;20023;-86
2023/05/28 03:53:37;;;;;;;9.55;4.30;;;;;;;;;;4959724;29;20436;-87
2023/05/28 03:56:03;;;;;;;13.40;4.82;;;;;;;;;;4958630;28;20031;-86
2023/05/28 03:58:30;;;;;;;9.90;4.75;;;;;;;;;;4959915;28;20034;-86
2023/05/28 04:00:56;;;;;;;11.38;4.57;;;;;;;;;;4958678;28;20321;-87
2023/05/28 04:03:22;;;;;;;12.05;4.72;;;;;;;;;;4972933;28;20062;-87
2023/05/28 04:05:48;;;;;;;11.18;4.43;;;;;;;;;;4978500;28;20026;-86
2023/05/28 04:08:14;;;;;;;10.23;4.50;;;;;;;;;;4974200;28;20039;-87
2023/05/28 04:10:41;;;;;;;8.68;4.47;;;;;;;;;;4959567;29;20058;-87
2023/05/28 04:13:07;;;;;;;9.90;4.38;;;;;;;;;;4959528;29;20087;-86
2023/05/28 04:15:33;;;;;;;11.55;4.70;;;;;;;;;;4959638;28;20032;-86
2023/05/28 04:17:59;;;;;;;11.13;4.30;;;;;;;;;;4958331;29;20031;-87
2023/05/28 04:20:26;;;;;;;10.35;4.50;;;;;;;;;;4960123;28;20067;-87
2023/05/28 04:22:52;;;;;;;13.07;4.50;;;;;;;;;;4963304;29;20458;-87
2023/05/28 04:25:21;;;;;;;11.18;4.15;;;;;;;;;;4963319;29;20031;-87
2023/05/28 04:27:47;;;;;;;9.10;4.22;;;;;;;;;;4962276;29;20027;-87
2023/05/28 04:30:13;;;;;;;11.13;4.15;;;;;;;;;;4963407;28;20460;-88
2023/05/28 04:32:39;;;;;;;11.90;4.88;;;;;;;;;;4963438;29;20035;-87
2023/05/28 04:35:08;;;;;;;11.88;4.60;;;;;;;;;;4963198;29;20028;-88
2023/05/28 04:37:36;;;;;;;10.32;5.30;;;;;;;;;;4962855;28;20121;-86
2023/05/28 04:40:04;;;;;;;11.40;4.65;;;;;;;;;;4962099;28;20031;-87
2023/05/28 04:42:30;;;;;;;15.07;5.38;;;;;;;;;;4963282;28;20035;-86
2023/05/28 04:44:58;;;;;;;9.95;4.53;;;;;;;;;;4969069;28;20092;-87
2023/05/28 04:47:24;;;;;;;11.35;4.53;;;;;;;;;;4981232;28;20117;-88
2023/05/28 04:49:50;;;;;;;12.93;4.50;;;;;;;;;;4982457;28;20050;-86
2023/05/28 04:52:17;;;;;;;13.43;4.97;;;;;;;;;;4979541;28;20031;-86
2023/05/28 04:54:45;;;;;;;9.30;4.65;;;;;;;;;;4963202;28;20433;-86
2023/05/28 05:00:14;;;;;;;11.75;4.88;;;;;;;;;;4982112;28;20037;-86
2023/05/28 05:02:41;;;;;;;11.15;4.10;;;;;;;;;;4981931;28;20404;-87
2023/05/28 05:05:07;;;;;;;10.13;4.70;;;;;;;;;;4982150;28;20325;-86
2023/05/28 05:07:37;;;;;;;10.90;4.80;;;;;;;;;;4981205;28;20031;-87
2023/05/28 05:10:08;;;;;;;15.32;5.20;;;;;;;;;;4981829;28;20038;-87
2023/05/28 05:12:52;;;;;;;11.48;4.63;;;;;;;;;;4982036;28;20030;-86
2023/05/28 05:15:18;;;;;;;10.45;4.53;;;;;;;;;;4981916;28;20078;-86
2023/05/28 05:17:45;;;;;;;9.20;4.63;;;;;;;;;;4981542;28;20360;-86
2023/05/28 05:20:11;;;;;;;8.50;4.55;;;;;;;;;;4981592;28;20074;-87
2023/05/28 05:22:37;;;;;;;11.48;5.35;;;;;;;;;;4981340;28;20033;-87
2023/05/28 05:25:03;;;;;;;13.65;4.88;;;;;;;;;;4980538;28;20134;-87
2023/05/28 05:27:50;;;;;;;9.95;4.80;;;;;;;;;;4980630;28;20038;-85
2023/05/28 05:30:17;;;;;;;11.82;5.07;;;;;;;;;;4981679;28;20039;-86
2023/05/28 05:32:43;;;;;;;15.25;5.50;;;;;;;;;;4980649;28;20023;-87
2023/05/28 05:35:09;;;;;;;14.02;4.68;;;;;;;;;;4980822;28;20029;-87
2023/05/28 05:37:35;;;;;;;9.27;4.70;;;;;;;;;;4981492;28;20122;-86
2023/05/28 05:40:05;;;;;;;10.40;4.75;;;;;;;;;;4975909;28;20034;-86
2023/05/28 05:45:48;;;;;;;11.13;4.57;;;;;;;;;;4981144;28;20155;-86
2023/05/28 05:48:14;;;;;;;11.77;4.70;;;;;;;;;;4976399;28;20050;-85
2023/05/28 05:50:50;;;;;;;8.52;4.53;;;;;;;;;;4979835;28;20109;-86
2023/05/28 05:53:16;;;;;;;11.70;5.63;;;;;;;;;;4961672;28;20073;-85
2023/05/28 05:55:43;;;;;;;13.27;5.22;;;;;;;;;;4981230;28;20074;-85
2023/05/28 05:58:09;;;;;;;14.35;5.13;;;;;;;;;;4971747;28;20358;-86
2023/05/28 06:00:35;;;;;;;13.20;5.43;;;;;;;;;;4960640;29;20425;-86
2023/05/28 06:03:01;;;;;;;11.85;5.32;;;;;;;;;;4971655;28;20022;-86
2023/05/28 06:05:27;;;;;;;11.52;5.55;;;;;;;;;;4980965;28;20027;-85
2023/05/28 06:07:53;;;;;;;10.82;5.03;;;;;;;;;;4962657;28;20333;-84
2023/05/28 06:10:19;;;;;;;12.02;4.75;;;;;;;;;;4969559;28;20381;-85
2023/05/28 06:12:45;;;;;;;10.73;5.03;;;;;;;;;;4966204;28;20042;-87
2023/05/28 06:15:11;;;;;;;12.35;5.20;;;;;;;;;;4961707;29;20090;-88
2023/05/28 06:17:38;;;;;;;11.20;4.95;;;;;;;;;;4971057;28;20426;-88
2023/05/28 06:20:07;;;;;;;10.02;5.53;;;;;;;;;;4961337;29;20031;-86
2023/05/28 06:22:33;;;;;;;11.27;5.00;;;;;;;;;;4968206;28;20033;-88
2023/05/28 06:25:00;;;;;;;12.07;6.10;;;;;;;;;;4978790;28;20027;-87
2023/05/28 06:30:30;;;;;;;10.82;5.68;;;;;;;;;;4963790;28;20070;-86
2023/05/28 06:32:56;;;;;;;13.60;5.45;;;;;;;;;;4961193;28;20023;-87
2023/05/28 06:35:22;;;;;;;11.38;5.50;;;;;;;;;;4961094;29;20027;-87
2023/05/28 06:37:48;;;;;;;13.80;6.10;;;;;;;;;;4973090;28;20030;-85
2023/05/28 06:40:14;;;;;;;12.68;6.32;;;;;;;;;;4970974;28;20386;-83
2023/05/28 06:42:40;;;;;;;13.35;5.55;;;;;;;;;;4987952;28;20420;-84
2023/05/28 06:45:07;;;;;;;12.68;6.10;;;;;;;;;;4977343;28;20061;-84
2023/05/28 06:47:33;;;;;;;14.10;6.28;;;;;;;;;;4961868;28;20413;-85
2023/05/28 06:49:59;;;;;;;13.48;5.90;;;;;;;;;;4960500;29;20123;-85
2023/05/28 06:52:27;;;;;;;13.32;6.07;;;;;;;;;;4959493;29;20432;-84
2023/05/28 06:54:53;;;;;;;14.20;6.30;;;;;;;;;;4960647;28;20091;-84
2023/05/28 06:57:19;;;;;;;16.50;6.45;;;;;;;;;;4960613;29;20020;-87
2023/05/28 06:59:45;;;;;;;12.75;6.20;;;;;;;;;;4973616;28;20035;-87
2023/05/28 07:02:11;;;;;;;8.55;5.20;;;;;;;;;;4962783;28;20498;-86
2023/05/28 07:04:37;;;;;;;13.68;6.55;;;;;;;;;;4960153;28;20118;-86
2023/05/28 07:07:04;;;;;;;10.00;5.35;;;;;;;;;;4962267;28;20019;-86
2023/05/28 07:09:30;;;;;;;11.15;5.85;;;;;;;;;;4963787;28;20500;-86
2023/05/28 07:15:00;;;;;;;12.07;6.18;;;;;;;;;;4979660;28;20029;-85
2023/05/28 07:17:26;;;;;;;15.82;6.60;;;;;;;;;;4979817;28;20022;-85
2023/05/28 07:19:52;;;;;;;13.45;6.28;;;;;;;;;;4979607;28;20037;-86
2023/05/28 07:22:18;;;;;;;13.70;6.47;;;;;;;;;;4978421;28;20030;-86
2023/05/28 07:24:44;;;;;;;9.75;6.00;;;;;;;;;;4969072;28;20065;-86
2023/05/28 07:27:12;;;;;;;12.55;5.70;;;;;;;;;;4960894;29;20027;-93
2023/05/28 07:29:40;;;;;;;14.73;6.78;;;;;;;;;;4966458;28;20476;-89
2023/05/28 07:32:06;;;;;;;13.50;6.07;;;;;;;;;;4959382;28;20034;-89
2023/05/28 07:34:32;;;;;;;15.57;5.72;;;;;;;;;;4960342;29;20441;-90
2023/05/28 07:36:58;;;;;;;13.75;6.40;;;;;;;;;;4976854;28;20027;-89
2023/05/28 07:39:24;;;;;;;11.30;6.22;;;;;;;;;;4978161;28;20425;-91
2023/05/28 07:41:50;;;;;;;12.55;6.38;;;;;;;;;;4981498;28;20026;-89
2023/05/28 07:44:36;;;;;;;12.93;6.15;;;;;;;;;;4971098;28;20070;-90
2023/05/28 07:47:02;;;;;;;13.98;6.22;;;;;;;;;;4959561;28;20366;-95
2023/05/28 07:49:28;;;;;;;16.25;6.60;;;;;;;;;;4958988;28;20073;-91
2023/05/28 07:51:54;;;;;;;17.90;7.38;;;;;;;;;;4976821;28;20419;-91
2023/05/28 07:54:20;;;;;;;16.40;7.20;;;;;;;;;;4978069;28;20026;-90
2023/05/28 07:56:46;;;;;;;14.85;6.85;;;;;;;;;;4978528;28;20026;-89
2023/05/28 07:59:12;;;;;;;13.75;7.30;;;;;;;;;;4977858;28;20026;-88
2023/05/28 08:01:38;;;;;;;15.35;8.63;;;;;;;;;;4978778;28;20026;-88
2023/05/28 08:04:04;;;;;;;10.95;6.47;;;;;;;;;;4977744;28;20038;-89
2023/05/28 08:06:32;;;;;;;17.55;7.82;;;;;;;;;;4977830;28;20332;-89
2023/05/28 08:08:58;;;;;;;15.82;7.55;;;;;;;;;;4978840;28;20321;-89
2023/05/28 08:11:25;;;;;;;15.25;8.13;;;;;;;;;;4977819;28;20030;-88
2023/05/28 08:13:51;;;;;;;14.90;7.90;;;;;;;;;;4979200;28;20026;-89
2023/05/28 08:16:18;;;;;;;17.25;7.88;;;;;;;;;;4977650;28;20035;-88
2023/05/28 08:18:44;;;;;;;17.88;7.70;;;;;;;;;;4977887;28;20027;-88
2023/05/28 08:21:10;;;;;;;12.15;7.68;;;;;;;;;;4977762;28;20074;-88
2023/05/28 08:23:36;;;;;;;15.07;8.38;;;;;;;;;;4977740;28;20136;-89
2023/05/28 08:26:03;;;;;;;12.80;7.50;;;;;;;;;;4978614;28;20070;-86
2023/05/28 08:28:29;;;;;;;16.70;7.53;;;;;;;;;;4978627;28;20030;-89
2023/05/28 08:30:56;;;;;;;14.43;7.75;;;;;;;;;;4978723;28;20031;-87
2023/05/28 08:33:22;;;;;;;15.38;7.40;;;;;;;;;;4978651;28;20143;-88
2023/05/28 08:35:49;;;;;;;18.13;8.13;;;;;;;;;;4978587;28;20050;-88
2023/05/28 08:38:15;;;;;;;10.90;7.28;;;;;;;;;;4978385;28;20441;-88
2023/05/28 08:40:42;;;;;;;12.65;7.32;;;;;;;;;;4978535;28;20035;-88
2023/05/28 08:43:08;;;;;;;16.08;7.80;;;;;;;;;;4978568;28;20038;-89
2023/05/28 08:45:36;;;;;;;11.57;7.72;;;;;;;;;;4977832;28;20039;-89
2023/05/28 08:48:05;;;;;;;11.88;7.22;;;;;;;;;;4977568;28;20074;-88
2023/05/28 08:50:32;;;;;;;13.40;7.25;;;;;;;;;;4978491;28;20019;-89
2023/05/28 08:53:00;;;;;;;12.95;7.18;;;;;;;;;;4978570;28;20027;-88
2023/05/28 08:55:26;;;;;;;13.13;7.85;;;;;;;;;;4977373;28;20027;-88
2023/05/28 08:57:53;;;;;;;15.98;7.47;;;;;;;;;;4977144;28;20425;-88
2023/05/28 09:00:19;;;;;;;12.15;7.38;;;;;;;;;;4978434;28;20039;-91
2023/05/28 09:02:45;;;;;;;13.20;7.75;;;;;;;;;;4977400;28;20043;-92
2023/05/28 09:05:11;;;;;;;18.63;7.78;;;;;;;;;;4978369;28;20027;-91
2023/05/28 09:07:37;;;;;;;11.38;7.35;;;;;;;;;;4978129;28;20022;-91
2023/05/28 09:10:04;;;;;;;12.90;6.65;;;;;;;;;;4981811;28;20447;-91
2023/05/28 09:12:30;;;;;;;11.18;6.68;;;;;;;;;;4980811;28;20034;-91
2023/05/28 09:14:56;;;;;;;9.57;6.57;;;;;;;;;;4980816;28;20031;-92
2023/05/28 09:17:42;;;;;;;11.80;7.00;;;;;;;;;;4981567;28;20405;-91
2023/05/28 09:20:14;;;;;;;11.75;7.10;;;;;;;;;;4980773;28;20062;-92
2023/05/28 09:22:40;;;;;;;10.27;6.22;;;;;;;;;;4980839;28;20031;-91
2023/05/28 09:25:07;;;;;;;14.30;6.97;;;;;;;;;;4981516;28;20033;-90
2023/05/28 09:27:34;;;;;;;8.90;6.53;;;;;;;;;;4981431;28;20392;-91
2023/05/28 09:30:07;;;;;;;12.27;7.10;;;;;;;;;;4981460;28;20022;-91
2023/05/28 09:32:37;;;;;;;10.52;6.45;;;;;;;;;;4981626;28;20313;-92
2023/05/28 09:35:07;;;;;;;8.75;5.55;;;;;;;;;;4979067;28;20441;-89
2023/05/28 09:37:33;;;;;;;11.40;6.88;;;;;;;;;;4980168;28;20443;-88
2023/05/28 09:40:03;;;;;;;9.68;6.60;;;;;;;;;;4980233;28;20038;-90
2023/05/28 09:42:39;;;;;;;9.43;6.40;;;;;;;;;;4981003;28;20035;-90
2023/05/28 09:45:05;;;;;;;9.35;6.90;;;;;;;;;;4980144;28;20066;-88
2023/05/28 09:47:31;;;;;;;18.85;9.65;;;;;;;;;;4968927;28;20046;-88
2023/05/28 09:49:57;;;;;;;11.40;6.90;;;;;;;;;;4975258;28;20388;-87
2023/05/28 09:52:23;;;;;;;9.60;6.25;;;;;;;;;;4980993;28;20015;-87
2023/05/28 09:54:55;;;;;;;11.95;7.57;;;;;;;;;;4980052;28;20038;-87
2023/05/28 09:57:25;;;;;;;10.98;6.72;;;;;;;;;;4980023;28;20022;-87
2023/05/28 09:59:57;;;;;;;10.50;6.68;;;;;;;;;;4980823;28;20031;-89
2023/05/28 10:02:25;;;;;;;9.43;7.07;;;;;;;;;;4981036;28;20035;-86
2023/05/28 10:04:56;;;;;;;10.63;6.78;;;;;;;;;;4980674;28;20030;-88
2023/05/28 10:07:25;;;;;;;8.63;6.30;;;;;;;;;;4980641;28;20041;-89
2023/05/28 10:09:52;;;;;;;9.88;5.68;;;;;;;;;;4980024;28;20035;-89
2023/05/28 10:12:21;;;;;;;12.40;6.32;;;;;;;;;;4980622;28;20031;-91
2023/05/28 10:14:48;;;;;;;12.32;6.53;;;;;;;;;;4980805;28;20027;-88
2023/05/28 10:17:15;;;;;;;10.05;6.53;;;;;;;;;;4980827;28;20022;-88
2023/05/28 10:19:41;;;;;;;9.05;6.45;;;;;;;;;;4980466;28;20329;-90
2023/05/28 10:22:08;;;;;;;10.30;5.93;;;;;;;;;;4979585;28;20030;-90
2023/05/28 10:24:34;;;;;;;13.85;7.15;;;;;;;;;;4979478;28;20030;-87
2023/05/28 10:27:00;;;;;;;16.77;6.97;;;;;;;;;;4961549;28;20043;-87
2023/05/28 10:29:27;;;;;;;11.20;6.30;;;;;;;;;;4960347;28;20020;-89
2023/05/28 10:32:02;;;;;;;14.82;6.63;;;;;;;;;;4961331;28;20069;-90
2023/05/28 10:34:32;;;;;;;8.43;6.07;;;;;;;;;;4960063;29;20040;-90
2023/05/28 10:37:02;;;;;;;7.82;5.82;;;;;;;;;;4960899;28;20019;-90
2023/05/28 10:39:28;;;;;;;9.30;5.80;;;;;;;;;;4961162;28;20039;-88
2023/05/28 10:41:57;;;;;;;12.38;7.10;;;;;;;;;;4961168;28;20079;-90
2023/05/28 10:44:23;;;;;;;9.15;6.45;;;;;;;;;;4959813;28;20309;-89
2023/05/28 10:46:56;;;;;;;11.52;6.45;;;;;;;;;;4960596;29;20047;-87
2023/05/28 10:49:23;;;;;;;11.23;6.30;;;;;;;;;;4959874;29;20023;-90
2023/05/28 10:52:02;;;;;;;13.93;6.15;;;;;;;;;;4960750;28;20413;-88
2023/05/28 10:54:31;;;;;;;8.48;6.20;;;;;;;;;;4959679;29;20035;-88
2023/05/28 10:57:09;;;;;;;10.50;6.10;;;;;;;;;;4959624;29;20034;-88
2023/05/28 10:59:41;;;;;;;9.02;5.90;;;;;;;;;;4960323;28;20116;-88
2023/05/28 11:02:08;;;;;;;10.10;6.43;;;;;;;;;;4960370;29;20030;-88
2023/05/28 11:04:35;;;;;;;15.80;7.03;;;;;;;;;;4960734;29;20023;-87
2023/05/28 11:07:01;;;;;;;12.07;5.70;;;;;;;;;;4960602;28;20393;-88
2023/05/28 11:09:27;;;;;;;22.30;6.15;;;;;;;;;;4960099;29;20417;-89
2023/05/28 11:11:54;;;;;;;14.50;6.63;;;;;;;;;;4960609;29;20358;-88
2023/05/28 11:14:20;;;;;;;7.82;6.40;;;;;;;;;;4960592;29;20023;-88
2023/05/28 11:16:46;;;;;;;8.02;6.43;;;;;;;;;;4960353;29;20023;-90
2023/05/28 11:19:12;;;;;;;9.18;6.50;;;;;;;;;;4959244;29;20122;-84
2023/05/28 11:21:51;;;;;;;9.25;6.38;;;;;;;;;;4960366;29;20032;-89
2023/05/28 11:24:17;;;;;;;6.97;5.70;;;;;;;;;;4960057;29;20118;-90
2023/05/28 11:26:43;;;;;;;16.13;6.03;;;;;;;;;;4960112;29;20410;-87
2023/05/28 11:29:10;;;;;;;8.75;6.07;;;;;;;;;;4959098;29;20187;-87
2023/05/28 11:31:42;;;;;;;13.00;6.25;;;;;;;;;;4959612;28;20019;-83
2023/05/28 11:34:11;;;;;;;10.93;6.05;;;;;;;;;;4958907;29;20031;-92
2023/05/28 11:36:45;;;;;;;11.35;6.60;;;;;;;;;;4960195;29;20057;-84
2023/05/28 11:39:12;;;;;;;10.77;6.25;;;;;;;;;;4959687;28;20035;-91
2023/05/28 11:41:38;;;;;;;9.85;5.75;;;;;;;;;;4960088;28;20027;-86
2023/05/28 11:47:08;;;;;;;9.50;6.25;;;;;;;;;;4942347;29;20133;-87
2023/05/28 11:49:36;;;;;;;8.90;7.18;;;;;;;;;;4959690;29;20031;-90
2023/05/28 11:52:03;;;;;;;8.23;6.15;;;;;;;;;;4959553;29;20034;-88
2023/05/28 11:54:29;;;;;;;7.40;5.95;;;;;;;;;;4959902;29;20070;-85
2023/05/28 11:56:55;;;;;;;9.95;6.43;;;;;;;;;;4959680;29;20031;-87
2023/05/28 11:59:21;;;;;;;7.65;6.10;;;;;;;;;;4959575;28;20023;-88
2023/05/28 12:01:47;;;;;;;7.60;5.93;;;;;;;;;;4959603;29;20439;-89
2023/05/28 12:04:14;;;;;;;8.75;6.43;;;;;;;;;;4959586;29;20114;-85
2023/05/28 12:06:53;;;;;;;6.85;5.30;;;;;;;;;;4958275;29;20067;-85
2023/05/28 12:09:19;;;;;;;11.88;6.00;;;;;;;;;;4958369;29;20028;-89
2023/05/28 12:12:02;;;;;;;14.52;6.57;;;;;;;;;;4959821;29;20038;-89
2023/05/28 12:14:30;;;;;;;9.57;6.10;;;;;;;;;;4959308;28;20027;-88
2023/05/28 12:16:56;;;;;;;11.38;6.38;;;;;;;;;;4959705;28;20023;-89
2023/05/28 12:19:22;;;;;;;13.40;6.38;;;;;;;;;;4958210;29;20070;-90
2023/05/28 12:21:48;;;;;;;8.77;5.97;;;;;;;;;;4963009;28;20320;-88
2023/05/28 12:24:15;;;;;;;8.48;5.85;;;;;;;;;;4962410;28;20417;-89
2023/05/28 12:26:44;;;;;;;6.97;5.38;;;;;;;;;;4966983;28;20046;-88
2023/05/28 12:29:10;;;;;;;7.50;5.65;;;;;;;;;;4976247;28;20413;-88
2023/05/28 12:31:36;;;;;;;7.20;5.38;;;;;;;;;;4968708;28;20026;-88
2023/05/28 12:34:03;;;;;;;6.32;5.22;;;;;;;;;;4967270;28;20023;-84
2023/05/28 12:36:29;;;;;;;8.60;5.45;;;;;;;;;;4978126;28;20409;-88
2023/05/28 12:38:56;;;;;;;9.60;5.35;;;;;;;;;;4977612;28;20087;-89
2023/05/28 12:41:22;;;;;;;10.25;6.38;;;;;;;;;;4979007;28;20049;-91
2023/05/28 12:44:08;;;;;;;8.57;5.70;;;;;;;;;;4964508;28;20033;-88
2023/05/28 12:46:34;;;;;;;7.43;5.47;;;;;;;;;;4961764;28;20106;-88
2023/05/28 12:49:00;;;;;;;7.53;5.50;;;;;;;;;;4961687;28;20074;-88
2023/05/28 12:51:26;;;;;;;6.82;5.40;;;;;;;;;;4962912;28;20027;-91
2023/05/28 12:53:52;;;;;;;10.93;5.68;;;;;;;;;;4978786;28;20045;-89
2023/05/28 12:56:18;;;;;;;6.85;5.57;;;;;;;;;;4981531;28;20455;-91
2023/05/28 12:58:45;;;;;;;6.85;5.22;;;;;;;;;;4982893;28;20318;-89
2023/05/28 13:01:11;;;;;;;6.72;5.35;;;;;;;;;;4982415;28;20031;-87
2023/05/28 13:03:37;;;;;;;9.32;5.40;;;;;;;;;;4996155;28;20037;-88
2023/05/28 13:06:04;;;;;;;8.25;5.47;;;;;;;;;;5001696;28;20030;-90
2023/05/28 13:08:30;;;;;;;6.70;5.22;;;;;;;;;;4972058;28;20122;-88
2023/05/28 13:10:57;;;;;;;8.55;5.10;;;;;;;;;;4962740;28;20027;-88
2023/05/28 13:13:23;;;;;;;6.35;5.10;;;;;;;;;;4961880;29;20378;-88
2023/05/28 13:15:50;;;;;;;7.93;5.30;;;;;;;;;;4962684;29;20027;-90
2023/05/28 13:18:16;;;;;;;6.88;5.45;;;;;;;;;;4963431;28;20137;-90
2023/05/28 13:20:43;;;;;;;8.80;5.50;;;;;;;;;;4981957;28;20027;-90
2023/05/28 13:23:09;;;;;;;7.10;5.30;;;;;;;;;;4980711;28;20034;-89
2023/05/28 13:25:37;;;;;;;6.30;5.03;;;;;;;;;;4981736;28;20042;-91
2023/05/28 13:28:05;;;;;;;7.57;5.38;;;;;;;;;;4980425;28;20060;-91
2023/05/28 13:30:31;;;;;;;6.45;5.40;;;;;;;;;;4981759;28;20050;-90
2023/05/28 13:32:57;;;;;;;6.00;5.13;;;;;;;;;;4981329;28;20058;-90
2023/05/28 13:35:24;;;;;;;8.32;5.43;;;;;;;;;;4980455;28;20038;-91
2023/05/28 13:37:51;;;;;;;7.60;5.53;;;;;;;;;;4981787;28;20027;-89
2023/05/28 13:40:20;;;;;;;7.35;4.80;;;;;;;;;;4963903;28;20126;-90
2023/05/28 13:42:48;;;;;;;8.93;5.00;;;;;;;;;;4960932;28;20032;-88
2023/05/28 13:45:33;;;;;;;6.90;5.38;;;;;;;;;;4976512;28;20035;-89
2023/05/28 13:48:01;;;;;;;8.25;5.45;;;;;;;;;;4980240;28;20066;-89
2023/05/28 13:50:28;;;;;;;9.63;4.97;;;;;;;;;;4981337;28;20412;-90
2023/05/28 13:52:57;;;;;;;6.20;5.05;;;;;;;;;;4980892;28;20050;-91
2023/05/28 13:55:23;;;;;;;7.13;4.90;;;;;;;;;;4971209;28;20035;-91
2023/05/28 13:57:49;;;;;;;7.15;4.80;;;;;;;;;;4960960;28;20500;-92
2023/05/28 14:00:17;;;;;;;5.65;4.80;;;;;;;;;;4961679;28;20043;-92
2023/05/28 14:02:43;;;;;;;7.78;5.43;;;;;;;;;;4977031;28;20035;-91
2023/05/28 14:05:09;;;;;;;8.20;5.30;;;;;;;;;;4975706;28;20051;-91
2023/05/28 14:07:36;;;;;;;10.52;4.90;;;;;;;;;;4979956;28;20056;-93
2023/05/28 14:10:02;;;;;;;10.18;5.15;;;;;;;;;;4981210;28;20464;-92
2023/05/28 14:12:29;;;;;;;6.95;5.47;;;;;;;;;;4979864;28;20081;-91
2023/05/28 14:14:55;;;;;;;8.93;5.55;;;;;;;;;;4980374;28;20034;-91
2023/05/28 14:17:21;;;;;;;9.00;5.10;;;;;;;;;;4979558;28;20054;-93
2023/05/28 14:19:47;;;;;;;6.20;5.20;;;;;;;;;;4979420;28;20321;-91
2023/05/28 14:22:13;;;;;;;7.05;4.70;;;;;;;;;;4963523;28;20035;-91
2023/05/28 14:24:39;;;;;;;6.03;4.68;;;;;;;;;;4980399;28;20326;-92
2023/05/28 14:27:06;;;;;;;8.77;5.20;;;;;;;;;;4980528;28;20033;-91
2023/05/28 14:29:32;;;;;;;9.57;5.47;;;;;;;;;;4980774;28;20023;-92
2023/05/28 14:31:58;;;;;;;9.90;5.22;;;;;;;;;;4980380;28;20074;-91
2023/05/28 14:34:24;;;;;;;6.72;4.80;;;;;;;;;;4980169;28;20023;-91
2023/05/28 14:36:50;;;;;;;6.07;4.70;;;;;;;;;;4979920;28;20421;-89
2023/05/28 14:39:16;;;;;;;8.23;5.00;;;;;;;;;;4979243;28;20038;-90
2023/05/28 14:41:42;;;;;;;6.65;4.63;;;;;;;;;;4976421;28;20404;-89
2023/05/28 14:47:25;;;;;;;8.10;5.03;;;;;;;;;;4961076;29;20055;-89
2023/05/28 14:49:51;;;;;;;9.60;5.38;;;;;;;;;;4960995;29;20034;-89
2023/05/28 14:52:36;;;;;;;7.07;5.28;;;;;;;;;;4960879;29;20394;-89
2023/05/28 14:55:03;;;;;;;7.35;5.00;;;;;;;;;;4959837;29;20027;-90
2023/05/28 14:57:29;;;;;;;7.45;5.10;;;;;;;;;;4972304;28;20041;-89
2023/05/28 15:02:59;;;;;;;7.43;5.57;;;;;;;;;;4966229;28;20433;-90
2023/05/28 15:05:27;;;;;;;9.10;5.50;;;;;;;;;;4958406;28;20036;-89
2023/05/28 15:07:53;;;;;;;6.57;5.10;;;;;;;;;;4959680;29;20031;-90
2023/05/28 15:10:20;;;;;;;9.88;5.50;;;;;;;;;;4966024;28;20024;-90
2023/05/28 15:12:46;;;;;;;7.75;5.57;;;;;;;;;;4997899;28;20029;-92